Clare, Iowa
Current Conditions -  °F | °C
As of 2:55 AM on Friday 28 Nov 2014 (Local Time) from KFOD Reporting Station
Broken Clouds Broken Clouds  
Wind Chill:   Ceiling: 12000
Heat Index: 16°   Visibility: 10mi
Dew Point:   Wind: 9mph
Humidity: 68%   Direction: 140°SE
Pressure: 30.07"   Gusts: NA
Location:  42.59°N, 94.35°W
Report Text: KFOD 280855Z AUTO 14008KT 10SM BKN120 M09/M14 A3007 RMK AO1 57044
Loading
Personal Weather Stations






























Interactive Weather Map New forecast layout! Learn more

10-Day Weather Forecast

Advertisements
Track Severe Weather on mobile